Terminal Aerodrome Forecast
Issued by NWS

Home | Current Version | Previous Version | Text Only | Print | Product List | Glossary On
Versions: 1 2 3 4 5 6 7 8 9 10 11 12 13 14 15 16 17 18 19 20
000
FTUS41 KPBZ 140000 AAB
TAFZZV
TAF AMD
KZZV 140043Z 1401/1424 23005KT 6SM BR SCT035 BKN100
      TEMPO 1401/1402 5SM -SHRA
     FM140700 22003KT 2SM BR SCT005 BKN010
     FM141400 22005KT 5SM HZ BKN020
     FM141600 23005KT P6SM VCSH BKN035=

USA.gov is the U.S. government's official web portal to all federal, state and local government web resources and services.